createdAt,value
2019-01-03T00:02:57.341Z,1.63
2019-01-03T00:09:17.072Z,1.25
2019-01-03T00:12:16.763Z,1.40
2019-01-03T00:18:23.035Z,1.40
2019-01-03T00:21:23.556Z,1.07
2019-01-03T00:27:26.024Z,1.70
2019-01-03T00:30:26.518Z,1.62
2019-01-03T00:33:25.994Z,2.00
2019-01-03T00:36:26.298Z,1.40
2019-01-03T00:39:25.930Z,1.23
2019-01-03T00:42:31.686Z,2.05
2019-01-03T00:45:31.230Z,1.05
2019-01-03T00:48:33.821Z,1.43
2019-01-03T00:54:40.672Z,1.20
2019-01-03T00:57:40.878Z,1.27
2019-01-03T01:00:40.770Z,1.20
2019-01-03T01:03:41.301Z,1.80
2019-01-03T01:06:30.538Z,1.47
2019-01-03T01:09:36.629Z,1.40
2019-01-03T01:12:25.422Z,1.30
2019-01-03T01:15:25.891Z,1.42
2019-01-03T01:18:25.460Z,1.40
2019-01-03T01:21:24.984Z,2.70
2019-01-03T01:24:25.486Z,1.40
2019-01-03T01:27:25.183Z,1.70
2019-01-03T01:30:28.742Z,1.67
2019-01-03T01:33:29.002Z,1.77
2019-01-03T01:36:28.609Z,1.90
2019-01-03T01:39:29.140Z,1.37
2019-01-03T01:42:29.653Z,2.00
2019-01-03T01:45:32.404Z,3.30
2019-01-03T01:48:35.694Z,2.92
2019-01-03T01:51:35.466Z,1.70
2019-01-03T01:54:38.915Z,1.60
2019-01-03T01:57:39.342Z,1.70
2019-01-03T02:00:39.000Z,1.82
2019-01-03T02:03:38.679Z,1.93
2019-01-03T02:06:39.186Z,1.20
2019-01-03T02:09:45.216Z,1.90
2019-01-03T02:12:45.706Z,1.42
2019-01-03T02:15:45.325Z,1.45
2019-01-03T02:18:48.862Z,1.22
2019-01-03T02:21:48.501Z,1.32
2019-01-03T02:28:13.862Z,1.20
2019-01-03T02:34:35.937Z,1.70
2019-01-03T02:37:35.557Z,1.40
2019-01-03T02:40:35.955Z,1.73
2019-01-03T02:46:36.063Z,2.00
2019-01-03T02:49:35.703Z,1.77
2019-01-03T02:52:36.210Z,1.70
2019-01-03T02:55:36.741Z,1.40
2019-01-03T02:58:36.429Z,1.35
2019-01-03T03:01:42.609Z,1.75
2019-01-03T03:04:43.129Z,1.98
2019-01-03T03:07:45.607Z,1.60
2019-01-03T03:10:48.325Z,1.40
2019-01-03T03:13:48.855Z,1.75
2019-01-03T03:16:48.342Z,1.75
2019-01-03T03:22:44.751Z,2.15
2019-01-03T03:25:44.406Z,1.17
2019-01-03T03:28:44.893Z,1.50
2019-01-03T03:31:47.540Z,1.50
2019-01-03T03:34:48.005Z,2.50
2019-01-03T03:37:47.625Z,1.40
2019-01-03T03:40:48.072Z,1.40
2019-01-03T03:43:47.866Z,1.60
2019-01-03T03:46:47.647Z,1.50
2019-01-03T03:49:47.309Z,1.92
2019-01-03T03:52:46.865Z,2.33
2019-01-03T03:55:50.292Z,1.55
2019-01-03T03:58:50.401Z,1.70
2019-01-03T04:01:50.753Z,1.90
2019-01-03T04:04:51.259Z,2.30
2019-01-03T04:11:12.639Z,1.50
2019-01-03T04:14:16.863Z,1.55
2019-01-03T04:17:23.303Z,1.32
2019-01-03T04:20:22.864Z,1.95
2019-01-03T04:26:42.907Z,1.70
2019-01-03T04:32:36.815Z,1.47
2019-01-03T04:35:43.027Z,1.98
2019-01-03T04:38:42.637Z,1.80
2019-01-03T04:41:42.261Z,1.45
2019-01-03T04:44:42.131Z,2.00
2019-01-03T04:50:48.674Z,2.42
2019-01-03T04:53:48.844Z,1.27
2019-01-03T04:56:49.116Z,1.57
2019-01-03T04:59:48.643Z,1.70
2019-01-03T05:02:48.374Z,1.40
2019-01-03T05:05:48.612Z,1.35
2019-01-03T05:08:48.903Z,1.30
2019-01-03T05:11:49.324Z,1.37
2019-01-03T05:14:48.892Z,1.77
2019-01-03T05:17:48.601Z,2.02
2019-01-03T05:20:54.867Z,1.52
2019-01-03T05:26:51.689Z,1.57
2019-01-03T05:29:52.225Z,1.32
2019-01-03T05:32:51.831Z,1.80
2019-01-03T05:39:11.702Z,1.50
2019-01-03T05:45:10.763Z,1.40
2019-01-03T05:48:11.294Z,2.00
2019-01-03T05:51:13.999Z,1.67
2019-01-03T05:54:14.564Z,1.72
2019-01-03T05:57:15.002Z,1.30
2019-01-03T06:03:35.039Z,1.87
2019-01-03T06:09:51.094Z,1.80
2019-01-03T06:12:51.582Z,1.55
2019-01-03T06:15:51.757Z,1.72
2019-01-03T06:18:52.016Z,1.57
2019-01-03T06:21:51.639Z,1.60
2019-01-03T06:24:54.279Z,1.60
2019-01-03T06:27:54.805Z,2.00
2019-01-03T06:30:54.790Z,1.25
2019-01-03T06:36:55.557Z,1.75
2019-01-03T06:39:56.723Z,1.72
2019-01-03T06:42:57.296Z,1.50
2019-01-03T06:45:56.950Z,1.85
2019-01-03T06:48:57.474Z,1.60
2019-01-03T06:52:03.662Z,1.22
2019-01-03T06:55:04.154Z,2.02
2019-01-03T06:58:09.822Z,2.25
2019-01-03T07:01:16.157Z,1.85
2019-01-03T07:04:15.687Z,2.02
2019-01-03T07:07:18.135Z,1.90
2019-01-03T07:10:17.788Z,2.37
2019-01-03T07:13:17.502Z,1.80
2019-01-03T07:16:18.021Z,1.65
2019-01-03T07:19:18.188Z,2.17
2019-01-03T07:25:00.866Z,2.00
2019-01-03T07:28:06.903Z,1.65
2019-01-03T07:31:06.774Z,1.80
2019-01-03T07:34:07.146Z,2.22
2019-01-03T07:37:07.258Z,1.70
2019-01-03T07:40:13.527Z,1.12
2019-01-03T07:43:13.569Z,1.40
2019-01-03T07:46:16.866Z,1.67
2019-01-03T07:49:43.323Z,1.80
2019-01-03T07:52:55.465Z,1.52
2019-01-03T07:55:38.019Z,1.10
2019-01-03T07:58:40.783Z,2.42
2019-01-03T08:01:40.938Z,1.70
2019-01-03T08:04:41.318Z,1.70
2019-01-03T08:10:53.511Z,2.00
2019-01-03T08:13:53.932Z,1.70
2019-01-03T08:16:49.386Z,1.77
2019-01-03T08:19:49.704Z,1.90
2019-01-03T08:22:49.303Z,2.00
2019-01-03T08:25:51.914Z,1.60
2019-01-03T08:28:57.311Z,1.90
2019-01-03T08:31:56.887Z,1.92
2019-01-03T08:34:59.555Z,1.67
2019-01-03T08:37:59.195Z,1.85
2019-01-03T08:40:59.623Z,1.75
2019-01-03T08:44:05.826Z,1.90
2019-01-03T08:47:05.646Z,1.72
2019-01-03T08:50:05.820Z,1.20
2019-01-03T08:53:08.789Z,1.87
2019-01-03T08:56:09.109Z,1.65
2019-01-03T08:59:08.791Z,2.47
2019-01-03T09:02:09.229Z,2.55
2019-01-03T09:05:09.430Z,1.67
2019-01-03T09:08:09.081Z,2.33
2019-01-03T09:11:08.729Z,3.30
2019-01-03T09:14:08.293Z,2.00
2019-01-03T09:17:07.875Z,2.10
2019-01-03T09:23:15.853Z,1.80
2019-01-03T09:26:16.199Z,1.70
2019-01-03T09:32:25.535Z,2.40
2019-01-03T09:35:25.831Z,1.80
2019-01-03T09:38:46.120Z,2.42
2019-01-03T09:41:33.655Z,2.40
2019-01-03T09:44:36.933Z,1.80
2019-01-03T09:47:18.146Z,2.20
2019-01-03T09:49:59.451Z,2.20
2019-01-03T09:52:40.218Z,1.52
2019-01-03T09:55:20.970Z,2.15
2019-01-03T09:58:01.898Z,2.55
2019-01-03T10:00:42.602Z,1.80
2019-01-03T10:03:24.223Z,2.20
2019-01-03T10:06:04.929Z,2.40
2019-01-03T10:08:45.618Z,2.52
2019-01-03T10:11:26.285Z,2.22
2019-01-03T10:14:07.137Z,2.00
2019-01-03T10:16:48.770Z,2.70
2019-01-03T10:19:30.323Z,2.25
2019-01-03T10:22:11.097Z,1.87
2019-01-03T10:24:52.563Z,2.37
2019-01-03T10:27:33.157Z,2.10
2019-01-03T10:30:14.761Z,2.27
2019-01-03T10:32:55.475Z,3.53
2019-01-03T10:35:36.255Z,2.33
2019-01-03T10:38:21.008Z,2.05
2019-01-03T10:40:59.658Z,1.95
2019-01-03T10:43:40.719Z,2.10
2019-01-03T10:46:21.950Z,2.10
2019-01-03T10:49:02.765Z,2.63
2019-01-03T10:51:43.968Z,1.30
2019-01-03T10:54:24.871Z,1.82
2019-01-03T10:57:06.247Z,3.05
2019-01-03T10:59:47.894Z,2.12
2019-01-03T11:02:29.759Z,1.90
2019-01-03T11:05:10.699Z,2.12
2019-01-03T11:07:51.466Z,1.60
2019-01-03T11:10:32.799Z,1.80
2019-01-03T11:13:14.169Z,1.85
2019-01-03T11:15:54.960Z,2.27
2019-01-03T11:18:35.652Z,2.75
2019-01-03T11:21:17.256Z,1.80
2019-01-03T11:23:58.803Z,1.92
2019-01-03T11:26:40.360Z,2.60
2019-01-03T11:29:21.814Z,2.00
2019-01-03T11:32:02.613Z,2.10
2019-01-03T11:34:43.394Z,2.22
2019-01-03T11:37:24.550Z,2.30
2019-01-03T11:40:05.459Z,2.20
2019-01-03T11:42:46.608Z,1.97
2019-01-03T11:45:27.290Z,2.20
2019-01-03T11:48:08.003Z,2.43
2019-01-03T11:50:48.875Z,1.65
2019-01-03T11:53:29.615Z,2.37
2019-01-03T11:56:10.640Z,1.40
2019-01-03T11:58:52.135Z,2.30
2019-01-03T12:01:33.089Z,2.57
2019-01-03T12:04:14.579Z,2.87
2019-01-03T12:06:55.261Z,2.00
2019-01-03T12:09:35.937Z,2.00
2019-01-03T12:12:17.251Z,2.55
2019-01-03T12:14:58.062Z,1.85
2019-01-03T12:17:38.962Z,2.43
2019-01-03T12:20:19.662Z,2.55
2019-01-03T12:23:00.315Z,2.25
2019-01-03T12:25:41.035Z,2.60
2019-01-03T12:28:22.079Z,2.65
2019-01-03T12:31:03.303Z,2.02
2019-01-03T12:33:44.376Z,3.60
2019-01-03T12:36:25.071Z,2.30
2019-01-03T12:39:05.746Z,2.60
2019-01-03T12:41:47.030Z,2.50
2019-01-03T12:44:28.482Z,2.43
2019-01-03T12:47:09.817Z,3.07
2019-01-03T12:49:51.355Z,2.40
2019-01-03T12:52:32.264Z,2.67
2019-01-03T12:55:13.867Z,3.17
2019-01-03T12:57:55.333Z,2.98
2019-01-03T13:00:36.070Z,2.35
2019-01-03T13:03:17.789Z,2.60
2019-01-03T13:05:58.814Z,3.27
2019-01-03T13:08:39.475Z,3.73
2019-01-03T13:11:20.124Z,2.50
2019-01-03T13:14:01.912Z,2.80
2019-01-03T13:16:43.416Z,2.72
2019-01-03T13:19:24.871Z,2.90
2019-01-03T13:22:06.419Z,1.80
2019-01-03T13:24:47.981Z,2.55
2019-01-03T13:27:48.133Z,2.67
2019-01-03T13:30:29.703Z,2.40
2019-01-03T13:35:54.175Z,3.03
2019-01-03T13:38:34.951Z,2.95
2019-01-03T13:41:15.627Z,2.50
2019-01-03T13:43:56.410Z,2.57
2019-01-03T13:46:37.772Z,2.40
2019-01-03T13:49:18.733Z,3.00
2019-01-03T13:52:00.197Z,1.77
2019-01-03T13:54:41.534Z,2.90
2019-01-03T13:57:22.262Z,2.80
2019-01-03T14:00:03.700Z,2.10
2019-01-03T14:02:45.176Z,2.47
2019-01-03T14:08:31.604Z,1.90
2019-01-03T14:11:13.187Z,1.22
2019-01-03T14:13:54.263Z,1.45
2019-01-03T14:16:35.882Z,2.65
2019-01-03T14:19:17.447Z,2.00
2019-01-03T14:21:58.362Z,1.80
2019-01-03T14:24:40.046Z,2.05
2019-01-03T14:27:21.598Z,2.45
2019-01-03T14:30:03.072Z,2.22
2019-01-03T14:32:43.833Z,1.93
2019-01-03T14:35:25.427Z,2.30
2019-01-03T14:38:06.208Z,2.27
2019-01-03T14:40:46.865Z,2.22
2019-01-03T14:43:28.445Z,2.40
2019-01-03T14:46:10.058Z,2.03
2019-01-03T14:48:50.966Z,2.15
2019-01-03T14:51:31.638Z,2.00
2019-01-03T14:54:12.404Z,2.50
2019-01-03T14:56:53.986Z,2.33
2019-01-03T14:59:36.402Z,2.15
2019-01-03T15:02:17.825Z,2.00
2019-01-03T15:04:59.237Z,2.25
2019-01-03T15:07:39.894Z,2.60
2019-01-03T15:10:20.894Z,2.70
2019-01-03T15:13:02.418Z,2.10
2019-01-03T15:15:43.747Z,2.47
2019-01-03T15:18:25.666Z,2.20
2019-01-03T15:21:06.316Z,2.30
2019-01-03T15:27:04.723Z,2.37
2019-01-03T15:29:45.550Z,2.70
2019-01-03T15:32:26.778Z,2.30
2019-01-03T15:35:08.262Z,2.95
2019-01-03T15:37:48.870Z,2.35
2019-01-03T15:40:29.566Z,3.20
2019-01-03T15:43:10.166Z,2.57
2019-01-03T15:45:51.777Z,2.50
2019-01-03T15:48:32.603Z,3.17
2019-01-03T15:51:14.181Z,2.60
2019-01-03T15:53:55.104Z,2.12
2019-01-03T15:56:36.605Z,1.80
2019-01-03T15:59:17.449Z,2.52
2019-01-03T16:01:58.189Z,2.05
2019-01-03T16:04:39.638Z,2.90
2019-01-03T16:07:20.462Z,1.40
2019-01-03T16:10:01.339Z,2.83
2019-01-03T16:12:42.973Z,3.02
2019-01-03T16:15:23.633Z,3.13
2019-01-03T16:18:05.082Z,2.00
2019-01-03T16:20:46.590Z,3.77
2019-01-03T16:23:28.027Z,2.90
2019-01-03T16:26:09.526Z,2.95
2019-01-03T16:28:50.903Z,2.58
2019-01-03T16:34:14.781Z,2.00
2019-01-03T16:36:55.546Z,2.83
2019-01-03T16:39:36.292Z,1.90
2019-01-03T16:42:16.984Z,2.25
2019-01-03T16:44:57.921Z,2.20
2019-01-03T16:47:39.419Z,2.22
2019-01-03T16:50:20.387Z,2.40
2019-01-03T16:53:02.070Z,2.57
2019-01-03T16:55:43.591Z,3.00
2019-01-03T16:58:24.350Z,1.95
2019-01-03T17:01:05.618Z,2.45
2019-01-03T17:06:51.791Z,2.98
2019-01-03T17:09:32.519Z,3.12
2019-01-03T17:12:14.011Z,3.17
2019-01-03T17:14:54.700Z,2.67
2019-01-03T17:17:36.268Z,2.70
2019-01-03T17:20:17.697Z,2.37
2019-01-03T17:22:58.582Z,3.02
2019-01-03T17:25:40.030Z,3.10
2019-01-03T17:28:21.438Z,2.30
2019-01-03T17:33:46.212Z,2.60
2019-01-03T17:36:27.337Z,2.80
2019-01-03T17:39:08.839Z,2.15
2019-01-03T17:41:50.111Z,1.95
2019-01-03T17:44:30.857Z,2.30
2019-01-03T17:47:12.295Z,2.27
2019-01-03T17:49:53.323Z,2.35
2019-01-03T17:52:34.760Z,2.12
2019-01-03T17:55:16.164Z,1.90
2019-01-03T17:57:56.911Z,2.33
2019-01-03T18:00:37.643Z,2.10
2019-01-03T18:03:18.363Z,2.40
2019-01-03T18:09:07.514Z,2.60
2019-01-03T18:11:49.037Z,2.70
2019-01-03T18:14:29.783Z,2.70
2019-01-03T18:17:10.391Z,1.92
2019-01-03T18:19:52.029Z,1.82
2019-01-03T18:22:32.747Z,2.50
2019-01-03T18:25:13.635Z,2.90
2019-01-03T18:27:55.096Z,3.40
2019-01-03T18:30:35.767Z,5.10
2019-01-03T18:33:16.399Z,3.62
2019-01-03T18:35:57.978Z,3.50
2019-01-03T18:38:39.634Z,2.87
2019-01-03T18:41:20.387Z,3.72
2019-01-03T18:44:01.317Z,3.45
2019-01-03T18:46:42.362Z,2.90
2019-01-03T18:49:23.227Z,2.55
2019-01-03T18:52:04.840Z,2.50
2019-01-03T18:54:46.428Z,3.08
2019-01-03T18:57:27.978Z,3.05
2019-01-03T19:00:09.597Z,2.83
2019-01-03T19:02:50.268Z,3.27
2019-01-03T19:05:31.094Z,3.20
2019-01-03T19:08:11.962Z,2.25
2019-01-03T19:10:52.810Z,4.45
2019-01-03T19:13:34.296Z,3.53
2019-01-03T19:16:15.272Z,2.85
2019-01-03T19:18:56.025Z,3.12
2019-01-03T19:21:36.762Z,3.12
2019-01-03T19:24:17.530Z,3.12
2019-01-03T19:26:59.000Z,2.50
2019-01-03T19:29:39.694Z,3.12
2019-01-03T19:32:21.257Z,2.80
2019-01-03T19:35:01.888Z,1.92
2019-01-03T19:37:42.722Z,3.00
2019-01-03T19:40:23.609Z,2.45
2019-01-03T19:43:04.932Z,2.45
2019-01-03T19:45:45.733Z,1.72
2019-01-03T19:48:26.674Z,3.00
2019-01-03T19:51:07.378Z,2.52
2019-01-03T19:53:48.942Z,2.67
2019-01-03T19:56:30.530Z,2.60
2019-01-03T19:59:12.131Z,2.60
2019-01-03T20:01:53.548Z,2.90
2019-01-03T20:04:34.287Z,2.92
2019-01-03T20:07:15.766Z,2.45
2019-01-03T20:09:56.581Z,2.62
2019-01-03T20:12:37.601Z,1.95
2019-01-03T20:15:18.363Z,3.25
2019-01-03T20:17:59.385Z,1.90
2019-01-03T20:20:41.015Z,3.12
2019-01-03T20:23:22.565Z,3.05
2019-01-03T20:26:04.038Z,3.47
2019-01-03T20:28:45.618Z,3.15
2019-01-03T20:31:26.319Z,2.80
2019-01-03T20:36:50.645Z,3.52
2019-01-03T20:39:31.776Z,2.90
2019-01-03T20:42:12.662Z,3.35
2019-01-03T20:44:53.561Z,3.33
2019-01-03T20:47:34.365Z,3.20
2019-01-03T20:50:15.706Z,4.17
2019-01-03T20:52:56.651Z,4.10
2019-01-03T20:55:37.340Z,2.85
2019-01-03T20:58:18.085Z,4.00
2019-01-03T21:00:59.234Z,3.72
2019-01-03T21:03:40.853Z,3.55
2019-01-03T21:06:22.258Z,3.75
2019-01-03T21:09:02.983Z,3.95
2019-01-03T21:11:44.445Z,3.25
2019-01-03T21:14:25.303Z,4.83
2019-01-03T21:17:06.271Z,4.80
2019-01-03T21:19:47.204Z,4.35
2019-01-03T21:22:27.931Z,4.75
2019-01-03T21:25:08.618Z,5.58
2019-01-03T21:27:49.968Z,4.40
2019-01-03T21:33:49.985Z,5.83
2019-01-03T21:36:31.548Z,5.08
2019-01-03T21:39:13.099Z,5.47
2019-01-03T21:41:53.911Z,4.58
2019-01-03T21:44:34.681Z,6.25
2019-01-03T21:47:15.345Z,7.00
2019-01-03T21:49:56.146Z,5.35
2019-01-03T21:52:37.709Z,5.40
2019-01-03T21:55:18.378Z,5.30
2019-01-03T21:57:59.130Z,5.55
2019-01-03T22:00:40.955Z,6.42
2019-01-03T22:03:22.399Z,5.40
2019-01-03T22:06:03.636Z,6.17
2019-01-03T22:08:44.471Z,6.10
2019-01-03T22:11:26.110Z,5.92
2019-01-03T22:14:07.732Z,5.65
2019-01-03T22:16:49.158Z,5.80
2019-01-03T22:19:29.887Z,6.00
2019-01-03T22:22:11.471Z,5.90
2019-01-03T22:24:52.572Z,5.75
2019-01-03T22:27:34.058Z,5.87
2019-01-03T22:30:14.839Z,7.15
2019-01-03T22:32:55.751Z,6.45
2019-01-03T22:35:38.057Z,5.78
2019-01-03T22:38:19.696Z,6.28
2019-01-03T22:41:01.329Z,6.28
2019-01-03T22:43:43.029Z,5.70
2019-01-03T22:49:32.695Z,6.55
2019-01-03T22:52:13.391Z,6.83
2019-01-03T22:54:54.286Z,5.75
2019-01-03T22:57:35.923Z,6.87
2019-01-03T23:00:17.539Z,7.22
2019-01-03T23:02:59.035Z,7.58
2019-01-03T23:05:40.635Z,7.17
2019-01-03T23:08:22.127Z,6.80
2019-01-03T23:11:03.725Z,6.33
2019-01-03T23:13:44.442Z,6.85
2019-01-03T23:16:25.245Z,6.87
2019-01-03T23:19:06.095Z,6.45
2019-01-03T23:21:46.944Z,5.42
2019-01-03T23:24:27.780Z,6.53
2019-01-03T23:27:09.261Z,7.25
2019-01-03T23:29:50.757Z,6.67
2019-01-03T23:32:31.523Z,7.33
2019-01-03T23:35:13.209Z,6.85
2019-01-03T23:37:54.763Z,7.80
2019-01-03T23:40:36.297Z,6.75
2019-01-03T23:43:17.647Z,6.28
2019-01-03T23:45:58.397Z,7.78
2019-01-03T23:48:39.964Z,8.35
2019-01-03T23:51:20.801Z,7.42
2019-01-03T23:54:02.327Z,7.87
2019-01-03T23:56:43.014Z,8.23
2019-01-03T23:59:24.394Z,8.08
